sensor_id;sensor_type;location;lat;lon;timestamp;P1;durP1;ratioP1;P2;durP2;ratioP2
35612;SDS011;22054;51.646;7.078;2023-03-19T00:02:24;2.17;;;2.08;;
35612;SDS011;22054;51.646;7.078;2023-03-19T00:04:50;0.10;;;0.10;;
35612;SDS011;22054;51.646;7.078;2023-03-19T00:07:16;1.00;;;1.00;;
35612;SDS011;22054;51.646;7.078;2023-03-19T00:09:42;0.90;;;0.90;;
35612;SDS011;22054;51.646;7.078;2023-03-19T00:12:09;2.67;;;2.58;;
35612;SDS011;22054;51.646;7.078;2023-03-19T00:14:36;2.85;;;2.65;;
35612;SDS011;22054;51.646;7.078;2023-03-19T00:17:02;0.03;;;0.03;;
35612;SDS011;22054;51.646;7.078;2023-03-19T00:19:27;0.10;;;0.10;;
35612;SDS011;22054;51.646;7.078;2023-03-19T00:21:54;0.10;;;0.10;;
35612;SDS011;22054;51.646;7.078;2023-03-19T00:24:20;0.10;;;0.10;;
35612;SDS011;22054;51.646;7.078;2023-03-19T00:26:46;0.05;;;0.05;;
35612;SDS011;22054;51.646;7.078;2023-03-19T00:29:12;0.80;;;0.80;;
35612;SDS011;22054;51.646;7.078;2023-03-19T00:31:38;0.65;;;0.65;;
35612;SDS011;22054;51.646;7.078;2023-03-19T00:34:05;0.50;;;0.50;;
35612;SDS011;22054;51.646;7.078;2023-03-19T00:36:32;0.00;;;0.00;;
35612;SDS011;22054;51.646;7.078;2023-03-19T00:38:57;0.00;;;0.00;;
35612;SDS011;22054;51.646;7.078;2023-03-19T00:41:23;0.00;;;0.00;;
35612;SDS011;22054;51.646;7.078;2023-03-19T00:43:53;0.00;;;0.00;;
35612;SDS011;22054;51.646;7.078;2023-03-19T00:46:22;0.00;;;0.00;;
35612;SDS011;22054;51.646;7.078;2023-03-19T00:48:49;1.05;;;1.02;;
35612;SDS011;22054;51.646;7.078;2023-03-19T00:51:22;0.00;;;0.00;;
35612;SDS011;22054;51.646;7.078;2023-03-19T00:53:51;0.00;;;0.00;;
35612;SDS011;22054;51.646;7.078;2023-03-19T00:56:18;0.10;;;0.10;;
35612;SDS011;22054;51.646;7.078;2023-03-19T00:58:44;0.00;;;0.00;;
35612;SDS011;22054;51.646;7.078;2023-03-19T01:01:11;0.40;;;0.40;;
35612;SDS011;22054;51.646;7.078;2023-03-19T01:03:39;0.80;;;0.80;;
35612;SDS011;22054;51.646;7.078;2023-03-19T01:06:05;0.40;;;0.40;;
35612;SDS011;22054;51.646;7.078;2023-03-19T01:08:31;0.30;;;0.30;;
35612;SDS011;22054;51.646;7.078;2023-03-19T01:11:31;0.50;;;0.50;;
35612;SDS011;22054;51.646;7.078;2023-03-19T01:13:50;0.82;;;0.82;;
35612;SDS011;22054;51.646;7.078;2023-03-19T01:16:15;0.00;;;0.00;;
35612;SDS011;22054;51.646;7.078;2023-03-19T01:18:41;0.00;;;0.00;;
35612;SDS011;22054;51.646;7.078;2023-03-19T01:21:07;0.00;;;0.00;;
35612;SDS011;22054;51.646;7.078;2023-03-19T01:23:33;0.00;;;0.00;;
35612;SDS011;22054;51.646;7.078;2023-03-19T01:25:58;0.00;;;0.00;;
35612;SDS011;22054;51.646;7.078;2023-03-19T01:28:24;0.00;;;0.00;;
35612;SDS011;22054;51.646;7.078;2023-03-19T01:30:50;0.10;;;0.10;;
35612;SDS011;22054;51.646;7.078;2023-03-19T01:33:16;0.88;;;0.88;;
35612;SDS011;22054;51.646;7.078;2023-03-19T01:35:44;0.60;;;0.60;;
35612;SDS011;22054;51.646;7.078;2023-03-19T01:38:14;0.40;;;0.40;;
35612;SDS011;22054;51.646;7.078;2023-03-19T01:40:44;0.50;;;0.50;;
35612;SDS011;22054;51.646;7.078;2023-03-19T01:43:18;0.40;;;0.40;;
35612;SDS011;22054;51.646;7.078;2023-03-19T01:45:46;1.13;;;1.13;;
35612;SDS011;22054;51.646;7.078;2023-03-19T01:48:26;1.15;;;1.15;;
35612;SDS011;22054;51.646;7.078;2023-03-19T01:51:14;0.82;;;0.82;;
35612;SDS011;22054;51.646;7.078;2023-03-19T01:53:44;0.10;;;0.10;;
35612;SDS011;22054;51.646;7.078;2023-03-19T01:56:28;0.20;;;0.20;;
35612;SDS011;22054;51.646;7.078;2023-03-19T01:58:58;0.17;;;0.17;;
35612;SDS011;22054;51.646;7.078;2023-03-19T02:01:28;0.30;;;0.30;;
35612;SDS011;22054;51.646;7.078;2023-03-19T02:03:58;0.10;;;0.10;;
35612;SDS011;22054;51.646;7.078;2023-03-19T02:06:24;0.30;;;0.30;;
35612;SDS011;22054;51.646;7.078;2023-03-19T02:08:54;0.30;;;0.30;;
35612;SDS011;22054;51.646;7.078;2023-03-19T02:11:21;0.30;;;0.30;;
35612;SDS011;22054;51.646;7.078;2023-03-19T02:13:47;0.30;;;0.30;;
35612;SDS011;22054;51.646;7.078;2023-03-19T02:16:13;0.40;;;0.40;;
35612;SDS011;22054;51.646;7.078;2023-03-19T02:18:40;0.40;;;0.40;;
35612;SDS011;22054;51.646;7.078;2023-03-19T02:21:24;0.30;;;0.30;;
35612;SDS011;22054;51.646;7.078;2023-03-19T02:26:37;0.43;;;0.43;;
35612;SDS011;22054;51.646;7.078;2023-03-19T02:29:05;0.20;;;0.20;;
35612;SDS011;22054;51.646;7.078;2023-03-19T02:31:31;0.52;;;0.52;;
35612;SDS011;22054;51.646;7.078;2023-03-19T02:36:40;0.30;;;0.30;;
35612;SDS011;22054;51.646;7.078;2023-03-19T02:39:16;0.30;;;0.30;;
35612;SDS011;22054;51.646;7.078;2023-03-19T02:41:52;0.40;;;0.40;;
35612;SDS011;22054;51.646;7.078;2023-03-19T02:44:20;0.40;;;0.40;;
35612;SDS011;22054;51.646;7.078;2023-03-19T02:46:45;0.35;;;0.35;;
35612;SDS011;22054;51.646;7.078;2023-03-19T02:49:11;0.30;;;0.30;;
35612;SDS011;22054;51.646;7.078;2023-03-19T02:51:37;0.45;;;0.45;;
35612;SDS011;22054;51.646;7.078;2023-03-19T02:54:03;0.30;;;0.30;;
35612;SDS011;22054;51.646;7.078;2023-03-19T02:56:29;0.30;;;0.30;;
35612;SDS011;22054;51.646;7.078;2023-03-19T02:58:55;0.35;;;0.35;;
35612;SDS011;22054;51.646;7.078;2023-03-19T03:01:21;0.40;;;0.40;;
35612;SDS011;22054;51.646;7.078;2023-03-19T03:03:47;0.40;;;0.40;;
35612;SDS011;22054;51.646;7.078;2023-03-19T03:06:13;0.60;;;0.60;;
35612;SDS011;22054;51.646;7.078;2023-03-19T03:08:39;0.20;;;0.20;;
35612;SDS011;22054;51.646;7.078;2023-03-19T03:11:05;0.30;;;0.30;;
35612;SDS011;22054;51.646;7.078;2023-03-19T03:13:31;0.30;;;0.30;;
35612;SDS011;22054;51.646;7.078;2023-03-19T03:15:57;0.30;;;0.30;;
35612;SDS011;22054;51.646;7.078;2023-03-19T03:18:23;0.30;;;0.30;;
35612;SDS011;22054;51.646;7.078;2023-03-19T03:20:48;0.38;;;0.38;;
35612;SDS011;22054;51.646;7.078;2023-03-19T03:23:14;0.38;;;0.38;;
35612;SDS011;22054;51.646;7.078;2023-03-19T03:25:41;0.88;;;0.88;;
35612;SDS011;22054;51.646;7.078;2023-03-19T03:28:06;0.60;;;0.60;;
35612;SDS011;22054;51.646;7.078;2023-03-19T03:30:32;1.00;;;1.00;;
35612;SDS011;22054;51.646;7.078;2023-03-19T03:32:58;0.32;;;0.32;;
35612;SDS011;22054;51.646;7.078;2023-03-19T03:35:24;0.40;;;0.40;;
35612;SDS011;22054;51.646;7.078;2023-03-19T03:37:51;0.40;;;0.40;;
35612;SDS011;22054;51.646;7.078;2023-03-19T03:40:17;0.43;;;0.43;;
35612;SDS011;22054;51.646;7.078;2023-03-19T03:42:43;0.50;;;0.50;;
35612;SDS011;22054;51.646;7.078;2023-03-19T03:45:09;0.40;;;0.40;;
35612;SDS011;22054;51.646;7.078;2023-03-19T03:47:36;0.30;;;0.30;;
35612;SDS011;22054;51.646;7.078;2023-03-19T03:50:02;0.40;;;0.40;;
35612;SDS011;22054;51.646;7.078;2023-03-19T03:52:29;0.30;;;0.30;;
35612;SDS011;22054;51.646;7.078;2023-03-19T03:54:57;0.60;;;0.60;;
35612;SDS011;22054;51.646;7.078;2023-03-19T03:57:23;0.60;;;0.60;;
35612;SDS011;22054;51.646;7.078;2023-03-19T03:59:50;0.50;;;0.50;;
35612;SDS011;22054;51.646;7.078;2023-03-19T04:02:15;0.50;;;0.50;;
35612;SDS011;22054;51.646;7.078;2023-03-19T04:04:41;0.40;;;0.40;;
35612;SDS011;22054;51.646;7.078;2023-03-19T04:07:07;0.40;;;0.40;;
35612;SDS011;22054;51.646;7.078;2023-03-19T04:09:33;0.40;;;0.40;;
35612;SDS011;22054;51.646;7.078;2023-03-19T04:12:00;0.75;;;0.75;;
35612;SDS011;22054;51.646;7.078;2023-03-19T04:14:26;0.50;;;0.50;;
35612;SDS011;22054;51.646;7.078;2023-03-19T04:16:52;0.52;;;0.52;;
35612;SDS011;22054;51.646;7.078;2023-03-19T04:19:18;0.50;;;0.50;;
35612;SDS011;22054;51.646;7.078;2023-03-19T04:21:44;0.88;;;0.88;;
35612;SDS011;22054;51.646;7.078;2023-03-19T04:24:10;0.50;;;0.50;;
35612;SDS011;22054;51.646;7.078;2023-03-19T04:26:36;0.47;;;0.47;;
35612;SDS011;22054;51.646;7.078;2023-03-19T04:29:03;0.60;;;0.60;;
35612;SDS011;22054;51.646;7.078;2023-03-19T04:31:29;0.50;;;0.50;;
35612;SDS011;22054;51.646;7.078;2023-03-19T04:33:54;0.70;;;0.70;;
35612;SDS011;22054;51.646;7.078;2023-03-19T04:36:21;0.60;;;0.60;;
35612;SDS011;22054;51.646;7.078;2023-03-19T04:38:48;0.60;;;0.60;;
35612;SDS011;22054;51.646;7.078;2023-03-19T04:41:13;0.30;;;0.30;;
35612;SDS011;22054;51.646;7.078;2023-03-19T04:43:40;0.40;;;0.40;;
35612;SDS011;22054;51.646;7.078;2023-03-19T04:46:06;0.40;;;0.40;;
35612;SDS011;22054;51.646;7.078;2023-03-19T04:48:32;0.50;;;0.50;;
35612;SDS011;22054;51.646;7.078;2023-03-19T04:51:00;0.30;;;0.30;;
35612;SDS011;22054;51.646;7.078;2023-03-19T04:53:27;0.30;;;0.30;;
35612;SDS011;22054;51.646;7.078;2023-03-19T04:55:56;0.35;;;0.35;;
35612;SDS011;22054;51.646;7.078;2023-03-19T04:58:22;0.30;;;0.30;;
35612;SDS011;22054;51.646;7.078;2023-03-19T05:00:48;0.30;;;0.30;;
35612;SDS011;22054;51.646;7.078;2023-03-19T05:03:14;0.40;;;0.40;;
35612;SDS011;22054;51.646;7.078;2023-03-19T05:05:40;0.50;;;0.50;;
35612;SDS011;22054;51.646;7.078;2023-03-19T05:08:07;0.40;;;0.40;;
35612;SDS011;22054;51.646;7.078;2023-03-19T05:10:34;0.30;;;0.30;;
35612;SDS011;22054;51.646;7.078;2023-03-19T05:13:02;0.30;;;0.30;;
35612;SDS011;22054;51.646;7.078;2023-03-19T05:15:28;0.30;;;0.30;;
35612;SDS011;22054;51.646;7.078;2023-03-19T05:17:54;0.30;;;0.30;;
35612;SDS011;22054;51.646;7.078;2023-03-19T05:20:21;0.30;;;0.30;;
35612;SDS011;22054;51.646;7.078;2023-03-19T05:22:48;0.30;;;0.30;;
35612;SDS011;22054;51.646;7.078;2023-03-19T05:25:16;0.30;;;0.30;;
35612;SDS011;22054;51.646;7.078;2023-03-19T05:27:43;0.22;;;0.22;;
35612;SDS011;22054;51.646;7.078;2023-03-19T05:30:09;0.40;;;0.40;;
35612;SDS011;22054;51.646;7.078;2023-03-19T05:32:36;0.20;;;0.20;;
35612;SDS011;22054;51.646;7.078;2023-03-19T05:35:04;0.70;;;0.70;;
35612;SDS011;22054;51.646;7.078;2023-03-19T05:37:30;0.75;;;0.75;;
35612;SDS011;22054;51.646;7.078;2023-03-19T05:39:56;1.10;;;1.10;;
35612;SDS011;22054;51.646;7.078;2023-03-19T05:42:22;1.48;;;1.48;;
35612;SDS011;22054;51.646;7.078;2023-03-19T05:44:47;0.30;;;0.30;;
35612;SDS011;22054;51.646;7.078;2023-03-19T05:47:13;1.70;;;1.70;;
35612;SDS011;22054;51.646;7.078;2023-03-19T05:49:40;0.50;;;0.50;;
35612;SDS011;22054;51.646;7.078;2023-03-19T05:52:06;0.40;;;0.40;;
35612;SDS011;22054;51.646;7.078;2023-03-19T05:54:31;0.40;;;0.40;;
35612;SDS011;22054;51.646;7.078;2023-03-19T05:56:57;0.40;;;0.40;;
35612;SDS011;22054;51.646;7.078;2023-03-19T05:59:23;0.50;;;0.50;;
35612;SDS011;22054;51.646;7.078;2023-03-19T06:01:50;0.60;;;0.60;;
35612;SDS011;22054;51.646;7.078;2023-03-19T06:04:16;0.40;;;0.40;;
35612;SDS011;22054;51.646;7.078;2023-03-19T06:06:43;1.02;;;1.02;;
35612;SDS011;22054;51.646;7.078;2023-03-19T06:09:09;1.02;;;1.02;;
35612;SDS011;22054;51.646;7.078;2023-03-19T06:11:35;0.90;;;0.90;;
35612;SDS011;22054;51.646;7.078;2023-03-19T06:14:03;1.30;;;1.30;;
35612;SDS011;22054;51.646;7.078;2023-03-19T06:16:29;2.03;;;1.92;;
35612;SDS011;22054;51.646;7.078;2023-03-19T06:18:55;1.95;;;1.85;;
35612;SDS011;22054;51.646;7.078;2023-03-19T06:21:21;1.20;;;1.20;;
35612;SDS011;22054;51.646;7.078;2023-03-19T06:23:46;0.68;;;0.68;;
35612;SDS011;22054;51.646;7.078;2023-03-19T06:26:12;0.68;;;0.68;;
35612;SDS011;22054;51.646;7.078;2023-03-19T06:28:38;0.80;;;0.80;;
35612;SDS011;22054;51.646;7.078;2023-03-19T06:31:04;0.60;;;0.60;;
35612;SDS011;22054;51.646;7.078;2023-03-19T06:33:30;0.80;;;0.80;;
35612;SDS011;22054;51.646;7.078;2023-03-19T06:35:57;0.68;;;0.68;;
35612;SDS011;22054;51.646;7.078;2023-03-19T06:38:23;0.20;;;0.20;;
35612;SDS011;22054;51.646;7.078;2023-03-19T06:40:49;0.32;;;0.32;;
35612;SDS011;22054;51.646;7.078;2023-03-19T06:43:15;0.40;;;0.40;;
35612;SDS011;22054;51.646;7.078;2023-03-19T06:45:41;0.40;;;0.40;;
35612;SDS011;22054;51.646;7.078;2023-03-19T06:48:07;0.45;;;0.45;;
35612;SDS011;22054;51.646;7.078;2023-03-19T06:50:32;0.40;;;0.40;;
35612;SDS011;22054;51.646;7.078;2023-03-19T06:52:58;0.50;;;0.50;;
35612;SDS011;22054;51.646;7.078;2023-03-19T06:55:24;0.50;;;0.50;;
35612;SDS011;22054;51.646;7.078;2023-03-19T06:57:50;0.30;;;0.30;;
35612;SDS011;22054;51.646;7.078;2023-03-19T07:00:16;0.40;;;0.40;;
35612;SDS011;22054;51.646;7.078;2023-03-19T07:02:43;0.57;;;0.57;;
35612;SDS011;22054;51.646;7.078;2023-03-19T07:05:09;0.50;;;0.50;;
35612;SDS011;22054;51.646;7.078;2023-03-19T07:07:35;0.50;;;0.50;;
35612;SDS011;22054;51.646;7.078;2023-03-19T07:10:01;0.50;;;0.50;;
35612;SDS011;22054;51.646;7.078;2023-03-19T07:12:27;0.60;;;0.60;;
35612;SDS011;22054;51.646;7.078;2023-03-19T07:14:54;0.30;;;0.30;;
35612;SDS011;22054;51.646;7.078;2023-03-19T07:17:20;0.50;;;0.50;;
35612;SDS011;22054;51.646;7.078;2023-03-19T07:19:50;0.30;;;0.30;;
35612;SDS011;22054;51.646;7.078;2023-03-19T07:22:16;0.88;;;0.88;;
35612;SDS011;22054;51.646;7.078;2023-03-19T07:24:42;0.60;;;0.60;;
35612;SDS011;22054;51.646;7.078;2023-03-19T07:27:08;0.52;;;0.52;;
35612;SDS011;22054;51.646;7.078;2023-03-19T07:29:35;0.40;;;0.40;;
35612;SDS011;22054;51.646;7.078;2023-03-19T07:32:01;0.30;;;0.30;;
35612;SDS011;22054;51.646;7.078;2023-03-19T07:34:27;0.35;;;0.35;;
35612;SDS011;22054;51.646;7.078;2023-03-19T07:36:52;0.20;;;0.20;;
35612;SDS011;22054;51.646;7.078;2023-03-19T07:39:18;0.40;;;0.40;;
35612;SDS011;22054;51.646;7.078;2023-03-19T07:41:45;0.20;;;0.20;;
35612;SDS011;22054;51.646;7.078;2023-03-19T07:44:12;0.30;;;0.30;;
35612;SDS011;22054;51.646;7.078;2023-03-19T07:46:40;0.30;;;0.30;;
35612;SDS011;22054;51.646;7.078;2023-03-19T07:49:06;0.20;;;0.20;;
35612;SDS011;22054;51.646;7.078;2023-03-19T07:51:32;0.65;;;0.65;;
35612;SDS011;22054;51.646;7.078;2023-03-19T07:53:59;0.30;;;0.30;;
35612;SDS011;22054;51.646;7.078;2023-03-19T07:56:25;2.03;;;1.95;;
35612;SDS011;22054;51.646;7.078;2023-03-19T07:58:51;4.15;;;4.00;;
35612;SDS011;22054;51.646;7.078;2023-03-19T08:01:17;0.75;;;0.75;;
35612;SDS011;22054;51.646;7.078;2023-03-19T08:03:43;0.30;;;0.30;;
35612;SDS011;22054;51.646;7.078;2023-03-19T08:06:12;0.20;;;0.20;;
35612;SDS011;22054;51.646;7.078;2023-03-19T08:08:40;0.20;;;0.20;;
35612;SDS011;22054;51.646;7.078;2023-03-19T08:11:06;0.20;;;0.20;;
35612;SDS011;22054;51.646;7.078;2023-03-19T08:13:32;0.30;;;0.30;;
35612;SDS011;22054;51.646;7.078;2023-03-19T08:15:58;0.43;;;0.43;;
35612;SDS011;22054;51.646;7.078;2023-03-19T08:18:24;3.20;;;3.10;;
35612;SDS011;22054;51.646;7.078;2023-03-19T08:20:51;2.63;;;2.53;;
35612;SDS011;22054;51.646;7.078;2023-03-19T08:23:17;1.38;;;1.38;;
35612;SDS011;22054;51.646;7.078;2023-03-19T08:25:43;0.90;;;0.90;;
35612;SDS011;22054;51.646;7.078;2023-03-19T08:28:09;0.20;;;0.20;;
35612;SDS011;22054;51.646;7.078;2023-03-19T08:30:36;0.80;;;0.80;;
35612;SDS011;22054;51.646;7.078;2023-03-19T08:33:02;0.80;;;0.80;;
35612;SDS011;22054;51.646;7.078;2023-03-19T08:35:30;0.60;;;0.60;;
35612;SDS011;22054;51.646;7.078;2023-03-19T08:37:56;0.80;;;0.80;;
35612;SDS011;22054;51.646;7.078;2023-03-19T08:40:22;0.30;;;0.30;;
35612;SDS011;22054;51.646;7.078;2023-03-19T08:42:48;1.73;;;1.73;;
35612;SDS011;22054;51.646;7.078;2023-03-19T08:45:14;1.08;;;1.08;;
35612;SDS011;22054;51.646;7.078;2023-03-19T08:47:41;1.77;;;1.75;;
35612;SDS011;22054;51.646;7.078;2023-03-19T08:50:08;0.50;;;0.50;;
35612;SDS011;22054;51.646;7.078;2023-03-19T08:52:34;0.45;;;0.45;;
35612;SDS011;22054;51.646;7.078;2023-03-19T08:55:00;0.40;;;0.40;;
35612;SDS011;22054;51.646;7.078;2023-03-19T08:57:28;0.50;;;0.50;;
35612;SDS011;22054;51.646;7.078;2023-03-19T08:59:58;0.30;;;0.30;;
35612;SDS011;22054;51.646;7.078;2023-03-19T09:04:50;0.10;;;0.10;;
35612;SDS011;22054;51.646;7.078;2023-03-19T09:07:16;0.00;;;0.00;;
35612;SDS011;22054;51.646;7.078;2023-03-19T09:09:43;0.10;;;0.10;;
35612;SDS011;22054;51.646;7.078;2023-03-19T09:12:10;0.00;;;0.00;;
35612;SDS011;22054;51.646;7.078;2023-03-19T09:14:40;0.10;;;0.10;;
35612;SDS011;22054;51.646;7.078;2023-03-19T09:17:10;0.10;;;0.10;;
35612;SDS011;22054;51.646;7.078;2023-03-19T09:19:37;0.00;;;0.00;;
35612;SDS011;22054;51.646;7.078;2023-03-19T09:22:03;0.20;;;0.20;;
35612;SDS011;22054;51.646;7.078;2023-03-19T09:24:30;0.10;;;0.10;;
35612;SDS011;22054;51.646;7.078;2023-03-19T09:26:58;0.20;;;0.20;;
35612;SDS011;22054;51.646;7.078;2023-03-19T09:29:23;0.20;;;0.20;;
35612;SDS011;22054;51.646;7.078;2023-03-19T09:31:49;0.20;;;0.20;;
35612;SDS011;22054;51.646;7.078;2023-03-19T09:34:15;0.30;;;0.30;;
35612;SDS011;22054;51.646;7.078;2023-03-19T09:36:44;0.28;;;0.28;;
35612;SDS011;22054;51.646;7.078;2023-03-19T09:39:09;0.30;;;0.30;;
35612;SDS011;22054;51.646;7.078;2023-03-19T09:41:39;0.30;;;0.30;;
35612;SDS011;22054;51.646;7.078;2023-03-19T09:44:35;0.30;;;0.30;;
35612;SDS011;22054;51.646;7.078;2023-03-19T09:47:14;0.30;;;0.30;;
35612;SDS011;22054;51.646;7.078;2023-03-19T09:50:20;0.40;;;0.40;;
35612;SDS011;22054;51.646;7.078;2023-03-19T09:55:51;0.40;;;0.40;;
35612;SDS011;22054;51.646;7.078;2023-03-19T09:58:22;1.33;;;1.33;;
35612;SDS011;22054;51.646;7.078;2023-03-19T10:00:59;0.10;;;0.10;;
35612;SDS011;22054;51.646;7.078;2023-03-19T10:06:05;0.00;;;0.00;;
35612;SDS011;22054;51.646;7.078;2023-03-19T10:15:00;0.00;;;0.00;;
35612;SDS011;22054;51.646;7.078;2023-03-19T10:17:40;0.00;;;0.00;;
35612;SDS011;22054;51.646;7.078;2023-03-19T10:26:17;0.00;;;0.00;;
35612;SDS011;22054;51.646;7.078;2023-03-19T10:28:57;0.00;;;0.00;;
35612;SDS011;22054;51.646;7.078;2023-03-19T10:34:35;0.00;;;0.00;;
35612;SDS011;22054;51.646;7.078;2023-03-19T10:37:11;0.00;;;0.00;;
35612;SDS011;22054;51.646;7.078;2023-03-19T10:39:45;0.00;;;0.00;;
35612;SDS011;22054;51.646;7.078;2023-03-19T10:45:31;0.00;;;0.00;;
35612;SDS011;22054;51.646;7.078;2023-03-19T10:48:01;0.00;;;0.00;;
35612;SDS011;22054;51.646;7.078;2023-03-19T10:58:56;0.00;;;0.00;;
35612;SDS011;22054;51.646;7.078;2023-03-19T11:01:31;0.00;;;0.00;;
35612;SDS011;22054;51.646;7.078;2023-03-19T11:04:01;0.00;;;0.00;;
35612;SDS011;22054;51.646;7.078;2023-03-19T11:06:53;0.00;;;0.00;;
35612;SDS011;22054;51.646;7.078;2023-03-19T11:09:34;0.08;;;0.08;;
35612;SDS011;22054;51.646;7.078;2023-03-19T11:12:17;0.00;;;0.00;;
35612;SDS011;22054;51.646;7.078;2023-03-19T11:14:49;0.00;;;0.00;;
35612;SDS011;22054;51.646;7.078;2023-03-19T11:20:18;0.00;;;0.00;;
35612;SDS011;22054;51.646;7.078;2023-03-19T11:22:58;0.00;;;0.00;;
35612;SDS011;22054;51.646;7.078;2023-03-19T11:25:46;0.00;;;0.00;;
35612;SDS011;22054;51.646;7.078;2023-03-19T11:28:20;0.00;;;0.00;;
35612;SDS011;22054;51.646;7.078;2023-03-19T11:33:50;0.00;;;0.00;;
35612;SDS011;22054;51.646;7.078;2023-03-19T11:39:45;0.00;;;0.00;;
35612;SDS011;22054;51.646;7.078;2023-03-19T11:51:29;0.00;;;0.00;;
35612;SDS011;22054;51.646;7.078;2023-03-19T12:00:53;0.00;;;0.00;;
35612;SDS011;22054;51.646;7.078;2023-03-19T12:06:34;0.00;;;0.00;;
35612;SDS011;22054;51.646;7.078;2023-03-19T12:09:42;0.00;;;0.00;;
35612;SDS011;22054;51.646;7.078;2023-03-19T12:24:01;0.00;;;0.00;;
35612;SDS011;22054;51.646;7.078;2023-03-19T12:31:59;0.00;;;0.00;;
35612;SDS011;22054;51.646;7.078;2023-03-19T12:40:49;2.95;;;2.85;;
35612;SDS011;22054;51.646;7.078;2023-03-19T12:46:56;6.57;;;6.30;;
35612;SDS011;22054;51.646;7.078;2023-03-19T12:57:59;6.20;;;6.00;;
35612;SDS011;22054;51.646;7.078;2023-03-19T13:01:19;6.90;;;6.60;;
35612;SDS011;22054;51.646;7.078;2023-03-19T13:04:17;5.93;;;5.72;;
35612;SDS011;22054;51.646;7.078;2023-03-19T13:07:02;6.30;;;6.10;;
35612;SDS011;22054;51.646;7.078;2023-03-19T13:12:16;6.07;;;5.88;;
35612;SDS011;22054;51.646;7.078;2023-03-19T13:23:40;5.70;;;5.50;;
35612;SDS011;22054;51.646;7.078;2023-03-19T13:26:10;5.97;;;5.77;;
35612;SDS011;22054;51.646;7.078;2023-03-19T13:28:38;6.20;;;6.00;;
35612;SDS011;22054;51.646;7.078;2023-03-19T13:31:34;6.20;;;6.00;;
35612;SDS011;22054;51.646;7.078;2023-03-19T13:34:02;6.50;;;6.30;;
35612;SDS011;22054;51.646;7.078;2023-03-19T13:36:36;6.32;;;6.13;;
35612;SDS011;22054;51.646;7.078;2023-03-19T13:39:23;6.30;;;6.10;;
35612;SDS011;22054;51.646;7.078;2023-03-19T13:41:56;6.25;;;6.05;;
35612;SDS011;22054;51.646;7.078;2023-03-19T13:44:48;6.30;;;6.10;;
35612;SDS011;22054;51.646;7.078;2023-03-19T13:52:45;6.20;;;6.00;;
35612;SDS011;22054;51.646;7.078;2023-03-19T13:58:13;5.80;;;5.60;;
35612;SDS011;22054;51.646;7.078;2023-03-19T14:01:49;6.40;;;6.20;;
35612;SDS011;22054;51.646;7.078;2023-03-19T14:06:35;6.43;;;6.23;;
35612;SDS011;22054;51.646;7.078;2023-03-19T14:22:40;6.00;;;5.80;;
35612;SDS011;22054;51.646;7.078;2023-03-19T14:28:33;6.03;;;5.82;;
35612;SDS011;22054;51.646;7.078;2023-03-19T14:34:48;6.55;;;6.30;;
35612;SDS011;22054;51.646;7.078;2023-03-19T14:37:45;6.10;;;5.90;;
35612;SDS011;22054;51.646;7.078;2023-03-19T14:40:29;5.95;;;5.75;;
35612;SDS011;22054;51.646;7.078;2023-03-19T14:50:23;5.85;;;5.65;;
35612;SDS011;22054;51.646;7.078;2023-03-19T14:56:33;6.20;;;6.00;;
35612;SDS011;22054;51.646;7.078;2023-03-19T15:01:58;6.30;;;6.10;;
35612;SDS011;22054;51.646;7.078;2023-03-19T15:04:27;6.53;;;6.25;;
35612;SDS011;22054;51.646;7.078;2023-03-19T15:14:41;6.00;;;5.80;;
35612;SDS011;22054;51.646;7.078;2023-03-19T15:17:59;6.10;;;5.90;;
35612;SDS011;22054;51.646;7.078;2023-03-19T15:21:06;5.93;;;5.72;;
35612;SDS011;22054;51.646;7.078;2023-03-19T15:23:47;6.50;;;6.25;;
35612;SDS011;22054;51.646;7.078;2023-03-19T15:26:33;6.30;;;6.10;;
35612;SDS011;22054;51.646;7.078;2023-03-19T15:29:14;6.30;;;6.10;;
35612;SDS011;22054;51.646;7.078;2023-03-19T15:31:49;6.20;;;6.00;;
35612;SDS011;22054;51.646;7.078;2023-03-19T15:34:22;6.30;;;6.10;;
35612;SDS011;22054;51.646;7.078;2023-03-19T15:40:04;6.50;;;6.25;;
35612;SDS011;22054;51.646;7.078;2023-03-19T15:43:02;6.32;;;6.13;;
35612;SDS011;22054;51.646;7.078;2023-03-19T15:55:40;6.13;;;5.93;;
35612;SDS011;22054;51.646;7.078;2023-03-19T15:58:08;6.30;;;6.10;;
35612;SDS011;22054;51.646;7.078;2023-03-19T16:00:41;6.20;;;6.00;;
35612;SDS011;22054;51.646;7.078;2023-03-19T16:03:10;6.15;;;5.95;;
35612;SDS011;22054;51.646;7.078;2023-03-19T16:05:43;6.00;;;5.80;;
35612;SDS011;22054;51.646;7.078;2023-03-19T16:08:23;5.90;;;5.70;;
35612;SDS011;22054;51.646;7.078;2023-03-19T16:10:50;5.70;;;5.50;;
35612;SDS011;22054;51.646;7.078;2023-03-19T16:13:30;5.40;;;5.20;;
35612;SDS011;22054;51.646;7.078;2023-03-19T16:18:54;5.47;;;5.28;;
35612;SDS011;22054;51.646;7.078;2023-03-19T16:21:38;5.30;;;5.10;;
35612;SDS011;22054;51.646;7.078;2023-03-19T16:24:23;5.80;;;5.60;;
35612;SDS011;22054;51.646;7.078;2023-03-19T16:27:00;5.70;;;5.50;;
35612;SDS011;22054;51.646;7.078;2023-03-19T16:29:33;5.72;;;5.53;;
35612;SDS011;22054;51.646;7.078;2023-03-19T16:32:32;5.75;;;5.55;;
35612;SDS011;22054;51.646;7.078;2023-03-19T16:35:16;5.80;;;5.60;;
35612;SDS011;22054;51.646;7.078;2023-03-19T16:37:44;5.88;;;5.68;;
35612;SDS011;22054;51.646;7.078;2023-03-19T16:40:40;5.45;;;5.25;;
35612;SDS011;22054;51.646;7.078;2023-03-19T16:43:15;5.68;;;5.47;;
35612;SDS011;22054;51.646;7.078;2023-03-19T16:46:02;5.65;;;5.45;;
35612;SDS011;22054;51.646;7.078;2023-03-19T16:48:32;5.68;;;5.47;;
35612;SDS011;22054;51.646;7.078;2023-03-19T16:50:58;5.50;;;5.30;;
35612;SDS011;22054;51.646;7.078;2023-03-19T16:53:25;5.90;;;5.70;;
35612;SDS011;22054;51.646;7.078;2023-03-19T16:55:56;5.95;;;5.75;;
35612;SDS011;22054;51.646;7.078;2023-03-19T17:01:39;6.07;;;5.88;;
35612;SDS011;22054;51.646;7.078;2023-03-19T17:03:58;6.10;;;5.90;;
35612;SDS011;22054;51.646;7.078;2023-03-19T17:06:24;5.80;;;5.60;;
35612;SDS011;22054;51.646;7.078;2023-03-19T17:08:53;5.90;;;5.70;;
35612;SDS011;22054;51.646;7.078;2023-03-19T17:11:20;5.50;;;5.30;;
35612;SDS011;22054;51.646;7.078;2023-03-19T17:13:52;5.72;;;5.53;;
35612;SDS011;22054;51.646;7.078;2023-03-19T17:16:21;6.00;;;5.80;;
35612;SDS011;22054;51.646;7.078;2023-03-19T17:18:48;5.32;;;5.13;;
35612;SDS011;22054;51.646;7.078;2023-03-19T17:21:15;5.90;;;5.70;;
35612;SDS011;22054;51.646;7.078;2023-03-19T17:23:49;5.38;;;5.18;;
35612;SDS011;22054;51.646;7.078;2023-03-19T17:26:17;5.30;;;5.10;;
35612;SDS011;22054;51.646;7.078;2023-03-19T17:28:51;4.90;;;4.70;;
35612;SDS011;22054;51.646;7.078;2023-03-19T17:34:00;5.22;;;5.03;;
35612;SDS011;22054;51.646;7.078;2023-03-19T17:36:34;4.50;;;4.30;;
35612;SDS011;22054;51.646;7.078;2023-03-19T17:39:00;5.10;;;4.90;;
35612;SDS011;22054;51.646;7.078;2023-03-19T17:41:26;5.90;;;5.70;;
35612;SDS011;22054;51.646;7.078;2023-03-19T17:43:54;5.32;;;5.13;;
35612;SDS011;22054;51.646;7.078;2023-03-19T17:46:21;5.38;;;5.18;;
35612;SDS011;22054;51.646;7.078;2023-03-19T17:48:50;5.53;;;5.32;;
35612;SDS011;22054;51.646;7.078;2023-03-19T17:51:16;5.50;;;5.30;;
35612;SDS011;22054;51.646;7.078;2023-03-19T17:53:44;5.40;;;5.20;;
35612;SDS011;22054;51.646;7.078;2023-03-19T17:56:17;5.45;;;5.25;;
35612;SDS011;22054;51.646;7.078;2023-03-19T17:58:45;5.10;;;4.90;;
35612;SDS011;22054;51.646;7.078;2023-03-19T18:01:18;5.45;;;5.25;;
35612;SDS011;22054;51.646;7.078;2023-03-19T18:03:48;5.95;;;5.75;;
35612;SDS011;22054;51.646;7.078;2023-03-19T18:06:16;6.00;;;5.80;;
35612;SDS011;22054;51.646;7.078;2023-03-19T18:08:44;5.90;;;5.70;;
35612;SDS011;22054;51.646;7.078;2023-03-19T18:11:11;6.30;;;6.10;;
35612;SDS011;22054;51.646;7.078;2023-03-19T18:13:37;6.05;;;5.85;;
35612;SDS011;22054;51.646;7.078;2023-03-19T18:16:04;6.00;;;5.80;;
35612;SDS011;22054;51.646;7.078;2023-03-19T18:18:44;6.38;;;6.18;;